Time;durP1;ratioP1;P1;durP2;ratioP2;P2;SDS_P1;SDS_P2;PMS_P1;PMS_P2;Temp;Humidity;BMP_temperature;BMP_pressure;BME280_temperature;BME280_humidity;BME280_pressure;Samples;Min_cycle;Max_cycle;Signal;HPM_P1;HPM_P2
2023/01/21 00:00:12;;;;;;;36.78;21.38;;;;;;;0.66;78.78;102268.88;3604196;39;20063;-63
2023/01/21 00:02:38;;;;;;;36.38;21.90;;;;;;;0.62;78.24;102267.13;3604024;39;20285;-62
2023/01/21 00:05:04;;;;;;;36.20;22.15;;;;;;;0.64;77.74;102275.06;3604792;39;20408;-63
2023/01/21 00:07:29;;;;;;;34.47;22.08;;;;;;;0.63;78.01;102276.81;3598974;39;20053;-62
2023/01/21 00:09:55;;;;;;;37.25;22.30;;;;;;;0.62;78.19;102277.69;3604550;39;20059;-62
2023/01/21 00:12:20;;;;;;;39.17;22.10;;;;;;;0.61;78.62;102278.59;3603483;39;20066;-62
2023/01/21 00:14:46;;;;;;;39.58;22.65;;;;;;;0.60;77.77;102287.41;3603618;39;20059;-62
2023/01/21 00:17:12;;;;;;;37.28;21.15;;;;;;;0.60;78.43;102289.16;3606204;39;20345;-62
2023/01/21 00:19:37;;;;;;;33.47;21.17;;;;;;;0.59;78.79;102298.84;3604861;39;20055;-62
2023/01/21 00:22:03;;;;;;;36.80;21.77;;;;;;;0.59;78.43;102301.50;3604182;39;20062;-62
2023/01/21 00:24:29;;;;;;;38.75;22.88;;;;;;;0.58;78.06;102291.81;3606585;39;20096;-62
2023/01/21 00:26:54;;;;;;;33.45;21.55;;;;;;;-0.04;78.03;102205.19;3604097;39;20306;-62
2023/01/21 00:29:20;;;;;;;37.22;22.13;;;;;;;0.53;77.52;102304.13;3605987;39;20061;-61
2023/01/21 00:31:47;;;;;;;44.38;23.42;;;;;;;0.51;78.36;102297.97;3603498;39;20047;-62
2023/01/21 00:34:13;;;;;;;38.88;22.90;;;;;;;0.50;77.35;102309.41;3604189;39;20074;-62
2023/01/21 00:36:38;;;;;;;37.30;21.65;;;;;;;0.45;78.57;102305.88;3607593;39;20100;-64
2023/01/21 00:39:05;;;;;;;40.47;23.05;;;;;;;0.45;77.46;102311.16;3603779;39;20374;-62
2023/01/21 00:41:31;;;;;;;40.40;22.50;;;;;;;0.45;78.96;102311.16;3606878;39;20054;-61
2023/01/21 00:43:56;;;;;;;36.60;21.95;;;;;;;0.42;77.96;102311.16;3603258;39;20051;-62
2023/01/21 00:46:22;;;;;;;38.13;22.38;;;;;;;0.35;77.48;102306.69;3602104;39;20271;-62
2023/01/21 00:48:48;;;;;;;38.25;22.35;;;;;;;0.39;77.65;102321.72;3603285;39;20067;-62
2023/01/21 00:51:13;;;;;;;40.63;22.27;;;;;;;0.32;78.04;102320.81;3605165;39;20035;-62
2023/01/21 00:53:43;;;;;;;38.60;22.63;;;;;;;-0.01;78.49;102258.94;3606125;39;20070;-63
2023/01/21 00:56:12;;;;;;;39.30;23.08;;;;;;;0.35;77.91;102335.78;3604171;39;20109;-62
2023/01/21 00:58:37;;;;;;;38.55;21.95;;;;;;;0.33;78.90;102340.22;3602117;39;20121;-63
2023/01/21 01:01:26;;;;;;;40.22;23.35;;;;;;;0.29;77.56;102352.53;3602077;39;20055;-64
2023/01/21 01:03:52;;;;;;;41.03;24.27;;;;;;;0.29;78.03;102351.66;3606220;39;20102;-63
2023/01/21 01:06:22;;;;;;;41.38;23.90;;;;;;;0.26;79.10;102364.88;3604043;39;20059;-62
2023/01/21 01:08:48;;;;;;;41.28;23.02;;;;;;;0.24;78.98;102367.47;3602955;39;20051;-62
2023/01/21 01:11:17;;;;;;;39.28;22.77;;;;;;;0.21;78.93;102365.69;3606172;39;20089;-63
2023/01/21 01:13:43;;;;;;;41.83;24.27;;;;;;;0.20;79.17;102363.94;3601428;39;20532;-63
2023/01/21 01:16:13;;;;;;;39.50;23.15;;;;;;;0.20;79.25;102377.16;3601720;39;20055;-62
2023/01/21 01:18:39;;;;;;;43.30;23.80;;;;;;;0.09;78.51;102362.97;3605368;39;20063;-63
2023/01/21 01:21:10;;;;;;;42.10;24.02;;;;;;;-0.02;78.93;102351.47;3604236;39;20074;-63
2023/01/21 01:23:35;;;;;;;41.88;23.63;;;;;;;0.20;78.41;102389.50;3606390;39;20050;-63
2023/01/21 01:26:05;;;;;;;40.75;24.58;;;;;;;0.19;78.44;102398.28;3604680;39;20054;-63
2023/01/21 01:28:32;;;;;;;43.55;22.90;;;;;;;0.02;78.76;102374.41;3603421;39;20051;-63
2023/01/21 01:30:59;;;;;;;43.85;24.30;;;;;;;0.17;79.09;102400.94;3601840;39;20382;-64
2023/01/21 01:33:26;;;;;;;43.22;25.08;;;;;;;0.13;78.71;102412.38;3604372;39;20355;-63
2023/01/21 01:35:52;;;;;;;44.67;24.23;;;;;;;0.08;78.19;102414.09;3605351;39;20059;-63
2023/01/21 01:38:21;;;;;;;46.22;26.08;;;;;;;0.10;78.55;102430.88;3602881;39;20117;-63
2023/01/21 01:40:51;;;;;;;44.13;25.67;;;;;;;0.10;79.05;102425.59;3605926;39;20047;-63
2023/01/21 01:43:23;;;;;;;46.10;26.00;;;;;;;0.10;78.44;102430.00;3604607;39;20047;-63
2023/01/21 01:45:49;;;;;;;48.20;26.20;;;;;;;0.10;79.43;102437.91;3603192;39;20062;-63
2023/01/21 01:48:30;;;;;;;45.13;25.38;;;;;;;0.10;78.84;102444.09;3603948;39;20047;-63
2023/01/21 01:51:03;;;;;;;47.58;27.00;;;;;;;0.09;79.24;102444.94;3602568;39;20055;-63
2023/01/21 01:53:31;;;;;;;47.38;27.02;;;;;;;0.11;79.16;102447.59;3603618;39;20346;-63
2023/01/21 01:55:58;;;;;;;48.90;27.98;;;;;;;0.11;79.82;102440.56;3603242;39;20120;-63
2023/01/21 01:58:24;;;;;;;51.67;29.25;;;;;;;0.12;78.75;102444.97;3603689;39;20106;-63
2023/01/21 02:00:50;;;;;;;49.72;27.00;;;;;;;0.13;78.57;102449.41;3603835;39;20039;-63
2023/01/21 02:06:01;;;;;;;49.85;27.58;;;;;;;0.11;78.59;102456.41;3604084;39;20077;-62
2023/01/21 02:08:28;;;;;;;49.13;27.50;;;;;;;0.09;78.58;102459.91;3602193;39;20124;-63
2023/01/21 02:10:55;;;;;;;47.53;26.58;;;;;;;0.06;79.20;102460.78;3605215;39;20124;-63
2023/01/21 02:13:29;;;;;;;48.45;27.30;;;;;;;0.05;78.67;102459.00;3604913;39;20045;-63
2023/01/21 02:16:41;;;;;;;50.53;28.95;;;;;;;0.03;79.42;102466.03;3604206;39;20078;-63
2023/01/21 02:19:41;;;;;;;52.97;28.02;;;;;;;0.00;79.28;102466.03;3605710;39;20281;-63
2023/01/21 02:22:15;;;;;;;50.42;27.58;;;;;;;-0.03;79.80;102481.88;3605374;39;20046;-63
2023/01/21 02:25:10;;;;;;;51.40;28.77;;;;;;;-0.07;79.53;102486.22;3603594;39;20404;-63
2023/01/21 02:27:41;;;;;;;49.78;27.92;;;;;;;-0.09;79.88;102488.00;3601616;39;20063;-63
2023/01/21 02:30:40;;;;;;;54.10;28.67;;;;;;;-0.11;79.42;102494.13;3601306;39;20062;-63
2023/01/21 02:33:30;;;;;;;53.30;28.52;;;;;;;-0.15;78.90;102487.06;3606696;39;20054;-62
2023/01/21 02:36:09;;;;;;;58.80;29.92;;;;;;;-0.21;79.38;102493.16;3605593;39;20635;-63
2023/01/21 02:38:59;;;;;;;55.45;30.85;;;;;;;-0.19;80.66;102491.44;3604098;39;20306;-63
2023/01/21 02:41:52;;;;;;;56.08;29.65;;;;;;;-0.18;80.63;102497.59;3603757;39;20059;-64
2023/01/21 02:44:58;;;;;;;52.58;28.85;;;;;;;-0.19;80.24;102502.00;3607127;39;20139;-61
2023/01/21 02:47:27;;;;;;;55.72;29.15;;;;;;;-0.20;79.96;102500.19;3604996;39;20058;-62
2023/01/21 02:50:04;;;;;;;54.90;30.00;;;;;;;-0.45;79.49;102471.78;3607858;39;20459;-62
2023/01/21 02:52:29;;;;;;;54.35;30.23;;;;;;;-0.31;80.07;102507.16;3608232;39;20051;-62
2023/01/21 02:54:59;;;;;;;60.60;32.13;;;;;;;-0.27;79.30;102515.13;3603075;39;20059;-62
2023/01/21 02:57:52;;;;;;;61.75;33.17;;;;;;;-0.27;79.62;102517.75;3603977;39;20047;-62
2023/01/21 03:00:41;;;;;;;58.67;31.20;;;;;;;-0.27;79.36;102522.16;3606869;39;20059;-61
2023/01/21 03:03:27;;;;;;;57.25;31.00;;;;;;;-0.30;79.42;102519.50;3596998;39;20153;-62
2023/01/21 03:06:39;;;;;;;61.00;32.08;;;;;;;-0.31;80.42;102529.19;3604326;39;20071;-62
2023/01/21 03:09:19;;;;;;;60.92;33.35;;;;;;;-0.31;80.81;102523.88;3604407;39;20148;-62
2023/01/21 03:12:11;;;;;;;64.53;34.15;;;;;;;-0.33;79.56;102530.91;3605732;39;20091;-62
2023/01/21 03:18:23;;;;;;;59.38;33.65;;;;;;;-0.40;79.91;102528.19;3603302;39;20221;-62
2023/01/21 03:21:06;;;;;;;65.32;34.40;;;;;;;-0.67;79.76;102487.38;3607581;39;20055;-62
2023/01/21 03:23:39;;;;;;;58.60;31.52;;;;;;;-0.39;79.74;102536.13;3602926;39;20124;-64
2023/01/21 03:26:12;;;;;;;64.15;32.80;;;;;;;-0.42;80.16;102530.81;3604223;39;20059;-62
2023/01/21 03:28:45;;;;;;;64.05;33.38;;;;;;;-0.39;81.25;102533.47;3605162;39;20298;-61
2023/01/21 03:31:19;;;;;;;;;;;;;;;-0.41;80.51;102536.97;3605610;39;20059;-63
2023/01/21 03:33:51;;;;;;;56.80;31.55;;;;;;;-0.42;80.16;102536.09;3603302;39;19935;-61
2023/01/21 03:36:39;;;;;;;63.42;32.10;;;;;;;-0.48;81.41;102531.66;3605839;39;20455;-61
2023/01/21 03:39:39;;;;;;;58.83;31.92;;;;;;;-0.41;80.23;102550.16;3603600;39;20411;-62
2023/01/21 03:42:06;;;;;;;68.47;32.83;;;;;;;-0.41;80.59;102548.44;3604401;39;20054;-63
2023/01/21 03:44:33;;;;;;;62.15;31.58;;;;;;;-0.41;80.46;102558.09;3605239;39;20598;-62
2023/01/21 03:47:05;;;;;;;57.95;32.03;;;;;;;-0.42;79.79;102557.22;3604802;39;20383;-61
2023/01/21 03:50:15;;;;;;;65.75;32.90;;;;;;;-0.42;80.71;102561.63;3605268;39;20053;-64
2023/01/21 03:52:43;;;;;;;56.80;30.60;;;;;;;-0.45;79.99;102562.47;3586262;39;20058;-61
2023/01/21 03:55:12;;;;;;;56.88;32.30;;;;;;;-0.47;80.08;102565.09;3602515;39;20050;-63
2023/01/21 03:57:37;;;;;;;60.40;32.35;;;;;;;-0.48;80.34;102568.63;3603642;39;20520;-62
2023/01/21 04:00:06;;;;;;;54.45;30.90;;;;;;;-0.48;80.24;102579.19;3601982;39;20061;-63
2023/01/21 04:02:32;;;;;;;56.80;30.77;;;;;;;-0.77;80.03;102528.63;3601120;39;20043;-61
2023/01/21 04:04:57;;;;;;;55.42;30.05;;;;;;;-0.52;79.69;102571.19;3604551;39;20059;-64
2023/01/21 04:07:24;;;;;;;61.42;31.95;;;;;;;-0.51;80.18;102575.59;3603915;39;20131;-62
2023/01/21 04:09:49;;;;;;;59.35;29.55;;;;;;;-0.52;80.39;102574.72;3594925;39;20056;-64
2023/01/21 04:12:16;;;;;;;64.65;32.50;;;;;;;-0.51;80.06;102583.53;3603903;39;20106;-62
2023/01/21 04:14:42;;;;;;;55.13;29.60;;;;;;;-0.53;80.83;102574.72;3606015;39;20095;-61
2023/01/21 04:17:08;;;;;;;57.25;31.08;;;;;;;-0.55;80.54;102579.97;3605593;39;20119;-61
2023/01/21 04:19:33;;;;;;;57.92;30.20;;;;;;;-0.57;80.06;102579.06;3602921;39;20102;-62
2023/01/21 04:21:59;;;;;;;54.75;29.15;;;;;;;-0.59;80.27;102587.84;3602411;39;20055;-62
2023/01/21 04:24:25;;;;;;;56.85;29.13;;;;;;;-0.59;81.09;102586.09;3601577;39;20086;-62
2023/01/21 04:26:51;;;;;;;53.17;28.35;;;;;;;-0.57;81.31;102594.00;3604817;39;20059;-62
2023/01/21 04:29:17;;;;;;;55.15;29.20;;;;;;;-0.59;80.80;102587.84;3604774;39;20039;-62
2023/01/21 04:31:43;;;;;;;58.55;28.65;;;;;;;-0.74;80.74;102576.19;3601650;39;20074;-63
2023/01/21 04:34:08;;;;;;;54.80;28.08;;;;;;;-0.62;81.08;102596.59;3604336;39;20515;-63
2023/01/21 04:36:34;;;;;;;53.85;27.38;;;;;;;-0.61;80.29;102592.22;3606558;39;20056;-63
2023/01/21 04:39:00;;;;;;;56.70;30.75;;;;;;;-0.62;81.48;102590.44;3593205;39;20323;-63
2023/01/21 04:41:25;;;;;;;57.88;29.45;;;;;;;-0.65;81.23;102588.66;3603537;39;20054;-63
2023/01/21 04:43:51;;;;;;;51.53;28.23;;;;;;;-0.62;80.19;102598.38;3604677;39;20066;-63
2023/01/21 04:46:17;;;;;;;53.40;28.48;;;;;;;-0.59;81.38;102590.47;3604728;39;20421;-62
2023/01/21 04:48:42;;;;;;;54.40;29.00;;;;;;;-0.79;80.74;102574.41;3604506;39;20055;-62
2023/01/21 04:51:08;;;;;;;49.58;27.10;;;;;;;-0.63;80.99;102600.13;3609891;39;20060;-63
2023/01/21 04:53:34;;;;;;;48.38;27.02;;;;;;;-1.05;79.79;102539.69;3604324;39;20090;-62
2023/01/21 04:56:00;;;;;;;50.25;25.85;;;;;;;-0.65;79.91;102620.34;3605609;39;20055;-62
2023/01/21 04:58:26;;;;;;;49.17;27.17;;;;;;;-0.63;80.12;102620.38;3604154;39;20147;-63
2023/01/21 05:00:54;;;;;;;50.63;26.38;;;;;;;-0.70;79.73;102608.81;3604572;39;20047;-63
2023/01/21 05:03:19;;;;;;;49.95;26.77;;;;;;;-0.67;80.71;102614.13;3607111;39;20050;-62
2023/01/21 05:05:45;;;;;;;46.22;25.75;;;;;;;-0.67;80.52;102631.72;3607593;39;20062;-62
2023/01/21 05:08:11;;;;;;;50.75;27.20;;;;;;;-0.68;80.91;102620.28;3606213;39;20051;-63
2023/01/21 05:10:36;;;;;;;46.33;26.15;;;;;;;-0.70;79.81;102629.94;3605882;39;20709;-63
2023/01/21 05:13:02;;;;;;;50.00;27.33;;;;;;;-0.74;80.72;102625.47;3602964;39;20143;-63
2023/01/21 05:15:28;;;;;;;51.55;26.70;;;;;;;-0.77;80.01;102623.69;3602435;39;20444;-63
2023/01/21 05:17:54;;;;;;;53.72;27.17;;;;;;;-0.77;80.58;102636.88;3606134;39;20054;-62
2023/01/21 05:20:20;;;;;;;55.92;26.48;;;;;;;-0.80;79.72;102636.84;3606064;39;20070;-63
2023/01/21 05:22:46;;;;;;;55.80;26.73;;;;;;;-0.85;79.63;102630.63;3602808;39;20127;-63
2023/01/21 05:25:14;;;;;;;54.85;26.45;;;;;;;-1.13;80.74;102592.38;3594714;39;20055;-63
2023/01/21 05:27:39;;;;;;;51.15;26.60;;;;;;;-0.84;80.52;102637.66;3606038;39;20077;-63
2023/01/21 05:30:06;;;;;;;49.28;25.63;;;;;;;-0.88;81.27;102640.25;3604240;39;20051;-63
2023/01/21 05:32:32;;;;;;;56.95;27.55;;;;;;;-0.90;80.30;102637.59;3603909;39;20091;-63
2023/01/21 05:34:57;;;;;;;49.40;26.75;;;;;;;-1.21;80.63;102589.63;3602885;39;20050;-62
2023/01/21 05:37:23;;;;;;;56.05;26.52;;;;;;;-0.88;80.41;102656.97;3596469;39;20058;-63
2023/01/21 05:39:48;;;;;;;53.88;27.48;;;;;;;-0.88;80.29;102654.34;3606116;39;20051;-63
2023/01/21 05:42:14;;;;;;;51.25;26.40;;;;;;;-0.97;80.00;102641.00;3605346;39;20401;-63
2023/01/21 05:44:40;;;;;;;48.35;25.23;;;;;;;-0.88;80.86;102664.91;3605810;39;20066;-63
2023/01/21 05:47:07;;;;;;;50.55;25.63;;;;;;;-0.88;80.44;102661.38;3606034;39;20094;-62
2023/01/21 05:49:33;;;;;;;50.67;25.88;;;;;;;-0.89;80.41;102662.22;3602467;39;20100;-63
2023/01/21 05:51:59;;;;;;;54.40;26.63;;;;;;;-0.91;80.18;102659.56;3607402;39;20070;-63
2023/01/21 05:54:25;;;;;;;48.90;25.98;;;;;;;-0.94;80.84;102657.78;3588155;39;20504;-62
2023/01/21 05:56:50;;;;;;;48.72;26.30;;;;;;;-0.94;80.67;102664.81;3608990;39;20046;-63
2023/01/21 05:59:16;;;;;;;50.30;24.88;;;;;;;-0.96;80.52;102677.97;3609056;39;20053;-63
2023/01/21 06:01:42;;;;;;;53.15;26.45;;;;;;;-1.34;80.66;102616.66;3606856;39;20132;-62
2023/01/21 06:04:07;;;;;;;52.08;26.40;;;;;;;-0.97;80.61;102677.94;3610885;39;20050;-63
2023/01/21 06:06:33;;;;;;;49.92;25.65;;;;;;;-0.97;80.44;102677.94;3608843;39;20424;-63
2023/01/21 06:08:59;;;;;;;51.03;25.80;;;;;;;-0.97;80.92;102688.50;3608297;39;20050;-63
2023/01/21 06:11:24;;;;;;;52.42;25.38;;;;;;;-0.97;80.93;102683.22;3608059;39;20290;-62
2023/01/21 06:13:50;;;;;;;49.15;26.48;;;;;;;-1.02;81.16;102683.16;3609158;39;20047;-63
2023/01/21 06:16:16;;;;;;;47.90;25.85;;;;;;;-1.02;81.38;102690.19;3609233;39;20778;-63
2023/01/21 06:18:41;;;;;;;51.72;25.90;;;;;;;-1.15;80.47;102665.34;3611463;39;20051;-63
2023/01/21 06:21:07;;;;;;;49.13;26.35;;;;;;;-0.98;80.44;102694.66;3608084;39;20059;-62
2023/01/21 06:23:32;;;;;;;47.42;25.75;;;;;;;-0.98;81.15;102694.66;3610929;39;20085;-62
2023/01/21 06:26:00;;;;;;;50.35;26.15;;;;;;;-1.04;81.04;102686.66;3612425;39;20062;-63
2023/01/21 06:28:26;;;;;;;50.33;26.38;;;;;;;-0.98;81.16;102706.09;3611048;39;20123;-61
2023/01/21 06:30:52;;;;;;;49.88;25.52;;;;;;;-0.98;81.00;102707.88;3613559;39;20051;-62
2023/01/21 06:33:18;;;;;;;48.15;23.67;;;;;;;-1.04;80.55;102702.47;3610198;39;20090;-62
2023/01/21 06:35:43;;;;;;;46.33;25.50;;;;;;;-0.99;80.96;102711.34;3611813;39;20047;-62
2023/01/21 06:38:09;;;;;;;49.63;26.27;;;;;;;-1.00;80.88;102713.09;3611322;39;20067;-62
2023/01/21 06:40:34;;;;;;;49.25;26.20;;;;;;;-1.02;80.72;102711.28;3610950;39;20435;-62
2023/01/21 06:43:00;;;;;;;52.72;25.42;;;;;;;-1.02;80.04;102721.84;3607385;39;20058;-62
2023/01/21 06:45:26;;;;;;;47.13;24.55;;;;;;;-1.01;79.75;102728.94;3610489;39;20063;-62
2023/01/21 06:47:51;;;;;;;46.33;25.17;;;;;;;-1.04;79.63;102737.69;3611779;39;20050;-63
2023/01/21 06:50:17;;;;;;;47.63;23.85;;;;;;;-1.61;79.80;102647.88;3608225;39;20047;-64
2023/01/21 06:52:46;;;;;;;52.88;25.75;;;;;;;-1.11;79.40;102733.16;3608778;39;20051;-62
2023/01/21 06:55:14;;;;;;;53.17;24.65;;;;;;;-1.10;80.04;102734.03;3609617;39;20043;-63
2023/01/21 06:57:42;;;;;;;49.47;25.77;;;;;;;-1.10;79.67;102741.97;3597965;39;20099;-63
2023/01/21 07:00:09;;;;;;;54.58;26.50;;;;;;;-1.12;80.43;102746.31;3611172;39;20400;-63
2023/01/21 07:02:35;;;;;;;49.47;25.48;;;;;;;-1.12;80.45;102746.31;3610009;39;20162;-64
2023/01/21 07:05:02;;;;;;;51.17;25.73;;;;;;;-1.24;79.63;102729.44;3609602;39;20043;-63
2023/01/21 07:07:28;;;;;;;52.55;26.20;;;;;;;-1.12;80.24;102756.88;3610371;39;20116;-64
2023/01/21 07:09:54;;;;;;;49.30;23.58;;;;;;;-1.14;79.27;102756.84;3607723;39;20348;-64
2023/01/21 07:12:20;;;;;;;48.78;25.02;;;;;;;-1.16;79.76;102761.22;3609657;39;20043;-63
2023/01/21 07:14:45;;;;;;;46.20;24.38;;;;;;;-1.19;79.38;102767.31;3601682;39;20630;-64
2023/01/21 07:17:11;;;;;;;47.85;24.60;;;;;;;-1.21;79.20;102763.75;3601439;39;20075;-63
2023/01/21 07:19:37;;;;;;;48.85;25.50;;;;;;;-1.25;79.33;102764.56;3608381;39;20059;-63
2023/01/21 07:22:02;;;;;;;49.58;25.00;;;;;;;-1.19;80.08;102783.16;3610777;39;20396;-63
2023/01/21 07:24:28;;;;;;;50.25;25.50;;;;;;;-1.20;79.02;102778.75;3606183;39;20066;-63
2023/01/21 07:26:55;;;;;;;46.53;25.83;;;;;;;-1.21;79.86;102784.84;3603624;39;20048;-63
2023/01/21 07:29:22;;;;;;;51.05;24.77;;;;;;;-1.20;79.18;102789.28;3605546;39;20062;-63
2023/01/21 07:31:47;;;;;;;47.95;24.42;;;;;;;-1.23;78.86;102789.25;3608210;39;20059;-63
2023/01/21 07:34:13;;;;;;;49.65;24.45;;;;;;;-1.21;78.53;102795.41;3608103;39;20061;-63
2023/01/21 07:36:39;;;;;;;48.78;24.73;;;;;;;-1.22;79.27;102798.91;3610013;39;20263;-63
2023/01/21 07:39:04;;;;;;;53.00;24.00;;;;;;;-1.22;79.72;102798.91;3607416;39;20055;-63
2023/01/21 07:41:30;;;;;;;44.60;24.45;;;;;;;-1.22;79.33;102809.47;3604361;39;20378;-63
2023/01/21 07:43:56;;;;;;;48.60;24.70;;;;;;;-1.21;80.07;102808.59;3598736;39;20124;-63
2023/01/21 07:46:22;;;;;;;49.35;25.30;;;;;;;-1.27;79.19;102800.59;3607599;39;20058;-63
2023/01/21 07:48:50;;;;;;;53.33;27.30;;;;;;;-1.19;79.47;102820.09;3609229;39;20054;-63
2023/01/21 07:51:19;;;;;;;50.28;24.10;;;;;;;-1.17;80.18;102826.28;3609513;39;20493;-63
2023/01/21 07:53:46;;;;;;;45.47;24.35;;;;;;;-1.15;79.25;102826.31;3606794;39;20047;-63
2023/01/21 07:56:12;;;;;;;47.58;25.02;;;;;;;-1.17;79.47;102826.28;3606277;39;20062;-63
2023/01/21 07:58:38;;;;;;;49.58;25.52;;;;;;;-1.18;79.44;102820.97;3605556;39;20070;-63
2023/01/21 08:01:06;;;;;;;53.40;24.35;;;;;;;-1.15;79.70;102835.97;3604212;39;20067;-63
2023/01/21 08:03:33;;;;;;;55.13;25.75;;;;;;;-1.15;80.11;102842.13;3604654;39;20067;-63
2023/01/21 08:05:59;;;;;;;50.30;26.85;;;;;;;-1.14;80.17;102853.56;3604141;39;20047;-63
2023/01/21 08:08:25;;;;;;;48.80;24.58;;;;;;;-1.13;79.91;102850.97;3604917;39;20357;-63
2023/01/21 08:10:53;;;;;;;54.72;26.52;;;;;;;-1.07;80.38;102866.06;3608789;39;20430;-63
2023/01/21 08:13:18;;;;;;;52.17;26.73;;;;;;;-1.64;79.99;102762.06;3605146;39;20458;-63
2023/01/21 08:15:49;;;;;;;52.83;26.50;;;;;;;-0.96;80.17;102873.28;3608766;39;20103;-64
2023/01/21 08:18:15;;;;;;;57.05;25.98;;;;;;;-0.90;80.60;102869.88;3608219;39;20054;-63
2023/01/21 08:20:40;;;;;;;52.03;27.00;;;;;;;-0.91;80.67;102870.75;3606292;39;20047;-63
2023/01/21 08:23:06;;;;;;;55.25;26.75;;;;;;;-0.84;80.44;102875.28;3606759;39;20147;-63
2023/01/21 08:25:32;;;;;;;59.65;27.02;;;;;;;-0.82;81.62;102877.97;3609184;39;20055;-63
2023/01/21 08:27:59;;;;;;;55.70;26.83;;;;;;;-0.76;81.26;102889.53;3606804;39;20558;-63
2023/01/21 08:30:24;;;;;;;56.95;29.13;;;;;;;-0.77;81.50;102882.44;3608884;39;20051;-63
2023/01/21 08:32:50;;;;;;;61.88;29.55;;;;;;;-0.72;81.34;102891.34;3607935;39;20055;-63
2023/01/21 08:35:16;;;;;;;57.65;27.58;;;;;;;-0.76;81.61;102888.59;3606846;39;20063;-63
2023/01/21 08:37:43;;;;;;;62.13;29.02;;;;;;;-0.65;81.60;102902.91;3609469;39;20059;-63
2023/01/21 08:40:09;;;;;;;60.15;29.55;;;;;;;-0.56;81.60;102907.47;3606713;39;20167;-63
2023/01/21 08:42:35;;;;;;;63.80;29.63;;;;;;;-0.56;82.52;102912.75;3606550;39;20365;-63
2023/01/21 08:45:01;;;;;;;66.47;30.45;;;;;;;-0.61;81.97;102906.50;3606647;39;20050;-63
2023/01/21 08:47:26;;;;;;;64.45;30.70;;;;;;;-0.51;82.19;102911.06;3604602;39;20051;-63
2023/01/21 08:49:52;;;;;;;62.40;29.48;;;;;;;-0.75;82.36;102875.44;3604201;39;20054;-64
2023/01/21 08:52:19;;;;;;;65.15;31.10;;;;;;;-0.79;82.26;102857.78;3603940;39;20066;-63
2023/01/21 08:54:45;;;;;;;60.17;30.40;;;;;;;-0.36;83.28;102931.59;3604059;39;20394;-64
2023/01/21 08:57:11;;;;;;;67.68;30.25;;;;;;;-0.36;83.43;102927.19;3607995;39;20043;-63
2023/01/21 08:59:37;;;;;;;67.68;31.20;;;;;;;-0.29;82.49;102938.75;3603654;39;20504;-63
2023/01/21 09:02:03;;;;;;;66.22;31.65;;;;;;;-0.18;83.06;102936.31;3608096;39;20074;-63
2023/01/21 09:04:28;;;;;;;68.93;31.88;;;;;;;-0.38;83.37;102888.38;3603275;39;20066;-63
2023/01/21 09:06:54;;;;;;;66.45;31.20;;;;;;;-0.02;82.66;102940.97;3605084;39;20083;-63
2023/01/21 09:09:20;;;;;;;70.38;31.80;;;;;;;-0.02;81.93;102939.22;3603833;39;20569;-63
2023/01/21 09:11:45;;;;;;;62.05;30.08;;;;;;;-0.04;82.44;102934.75;3599414;39;20066;-63
2023/01/21 09:14:11;;;;;;;64.60;30.02;;;;;;;0.00;81.59;102957.75;3608433;39;20054;-63
2023/01/21 09:16:37;;;;;;;62.75;30.17;;;;;;;-0.02;82.33;102948.91;3605838;39;20043;-62
2023/01/21 09:19:03;;;;;;;63.80;30.45;;;;;;;-0.02;83.12;102943.63;3603555;39;20378;-63
2023/01/21 09:21:33;;;;;;;63.50;29.42;;;;;;;0.01;83.17;102948.94;3603654;39;20070;-63
2023/01/21 09:23:59;;;;;;;66.18;31.08;;;;;;;0.11;83.01;102948.22;3605169;39;20309;-63
2023/01/21 09:26:25;;;;;;;66.18;31.13;;;;;;;0.18;82.74;102946.56;3606422;39;20058;-63
2023/01/21 09:28:55;;;;;;;62.97;30.25;;;;;;;0.18;83.09;102944.81;3604269;39;20047;-63
2023/01/21 09:31:24;;;;;;;61.38;29.90;;;;;;;0.23;82.52;102942.25;3603749;39;20292;-63
2023/01/21 09:33:55;;;;;;;63.70;30.17;;;;;;;0.24;82.75;102946.66;3605354;39;20047;-63
2023/01/21 09:36:26;;;;;;;64.95;29.05;;;;;;;0.26;81.45;102949.34;3601502;39;20505;-63
2023/01/21 09:38:53;;;;;;;65.88;29.65;;;;;;;0.26;81.85;102965.22;3605418;39;20051;-63
2023/01/21 09:41:40;;;;;;;60.90;28.35;;;;;;;0.23;81.16;102956.34;3607404;39;20389;-63
2023/01/21 09:44:43;;;;;;;65.30;28.65;;;;;;;0.25;81.50;102971.34;3609465;39;20043;-63
2023/01/21 09:47:38;;;;;;;70.93;29.75;;;;;;;0.27;81.50;102977.56;3604398;39;20051;-63
2023/01/21 09:50:21;;;;;;;60.78;29.02;;;;;;;-0.05;82.25;102928.59;3604149;39;20127;-63
2023/01/21 09:53:05;;;;;;;68.97;31.02;;;;;;;0.30;81.50;102989.06;3602843;39;20371;-63
2023/01/21 09:55:46;;;;;;;65.55;29.80;;;;;;;0.37;81.74;102990.06;3603324;39;20048;-63
2023/01/21 09:58:39;;;;;;;69.82;29.52;;;;;;;0.41;81.99;102994.50;3604585;39;20451;-63
2023/01/21 10:01:23;;;;;;;69.85;28.88;;;;;;;0.42;81.40;102999.84;3607859;39;20059;-63
2023/01/21 10:04:03;;;;;;;;;;;;;;;0.46;82.75;103001.66;3603710;39;20051;-63
2023/01/21 10:06:53;;;;;;;67.78;29.23;;;;;;;0.47;82.76;103013.13;3599821;39;19939;-63
2023/01/21 10:10:06;;;;;;;61.17;27.58;;;;;;;0.47;81.15;103011.38;3604043;39;20063;-63
2023/01/21 10:13:09;;;;;;;66.72;27.85;;;;;;;0.50;81.12;103017.59;3604558;39;20062;-63
2023/01/21 10:15:59;;;;;;;62.05;27.83;;;;;;;0.48;80.77;103020.22;3591731;39;20124;-63
2023/01/21 10:18:33;;;;;;;64.25;27.58;;;;;;;0.45;80.91;103020.19;3604424;39;20460;-63
2023/01/21 10:21:20;;;;;;;68.10;29.67;;;;;;;0.45;81.55;103025.47;3603551;39;20063;-63
2023/01/21 10:24:01;;;;;;;70.13;29.83;;;;;;;0.41;82.05;103023.63;3603250;39;20055;-63
2023/01/21 10:26:32;;;;;;;65.72;29.75;;;;;;;0.47;81.10;103021.06;3601391;39;20049;-64
2023/01/21 10:28:59;;;;;;;71.63;30.05;;;;;;;0.48;82.30;103025.50;3594208;39;20119;-63
2023/01/21 10:31:37;;;;;;;70.63;30.17;;;;;;;0.51;82.31;103025.56;3602686;39;20046;-63
2023/01/21 10:34:17;;;;;;;65.47;28.73;;;;;;;0.56;81.72;103023.84;3602782;39;20055;-63
2023/01/21 10:37:23;;;;;;;65.45;29.13;;;;;;;0.64;81.39;103030.16;3603997;39;20057;-63
2023/01/21 10:40:43;;;;;;;61.95;27.17;;;;;;;0.68;81.20;103024.03;3605727;39;20054;-63
2023/01/21 10:43:33;;;;;;;68.30;29.25;;;;;;;0.74;81.88;103017.06;3603561;39;20132;-64
2023/01/21 10:46:19;;;;;;;70.35;29.02;;;;;;;0.77;81.48;103012.69;3606930;39;20209;-63
2023/01/21 10:49:01;;;;;;;67.07;29.10;;;;;;;0.75;81.81;103003.84;3601952;39;20129;-63
2023/01/21 10:51:47;;;;;;;70.40;30.80;;;;;;;0.88;81.52;103004.91;3605913;39;20060;-65
2023/01/21 10:54:41;;;;;;;64.28;28.42;;;;;;;0.98;80.51;103003.25;3603137;39;20047;-63
2023/01/21 10:57:52;;;;;;;69.53;29.30;;;;;;;1.11;80.63;102998.16;3604436;39;20050;-63
2023/01/21 11:00:43;;;;;;;69.65;29.75;;;;;;;1.21;80.36;102998.28;3605521;39;20400;-63
2023/01/21 11:03:48;;;;;;;64.32;26.70;;;;;;;1.41;80.08;102994.06;3604634;39;20057;-63
2023/01/21 11:06:18;;;;;;;64.75;28.40;;;;;;;1.59;78.73;102996.03;3603908;39;20453;-64
2023/01/21 11:08:53;;;;;;;60.80;27.38;;;;;;;1.81;78.22;102999.78;3606670;39;20402;-63
2023/01/21 11:11:28;;;;;;;58.28;27.38;;;;;;;2.01;77.80;103008.81;3606571;39;20140;-63
2023/01/21 11:13:55;;;;;;;67.80;29.75;;;;;;;2.18;77.37;103005.41;3602401;39;20055;-64
2023/01/21 11:16:48;;;;;;;61.78;27.92;;;;;;;2.40;75.56;103003.81;3607424;39;20402;-63
2023/01/21 11:19:23;;;;;;;59.10;28.40;;;;;;;2.48;74.78;103003.00;3605178;39;20313;-63
2023/01/21 11:21:59;;;;;;;61.17;28.40;;;;;;;2.58;74.62;103003.94;3603718;39;20120;-64
2023/01/21 11:24:28;;;;;;;57.80;28.02;;;;;;;2.71;73.82;103004.91;3603610;39;20047;-64
2023/01/21 11:26:58;;;;;;;60.97;27.83;;;;;;;2.91;73.17;103002.34;3607192;39;20474;-64
2023/01/21 11:29:36;;;;;;;60.75;27.00;;;;;;;3.13;72.53;102992.69;3607361;39;20062;-64
2023/01/21 11:32:17;;;;;;;57.83;28.48;;;;;;;3.41;71.41;102991.03;3603549;39;20109;-66
2023/01/21 11:34:59;;;;;;;54.47;26.90;;;;;;;3.65;70.01;102995.53;3603570;39;20059;-65
2023/01/21 11:37:29;;;;;;;52.40;26.10;;;;;;;3.84;68.84;102986.69;3605155;39;20083;-64